sensor_id;sensor_type;location;lat;lon;timestamp;P1;durP1;ratioP1;P2;durP2;ratioP2
5871;SDS011;2962;51.312;7.378;2023-03-03T00:00:42;565.80;;;52.53;;
5871;SDS011;2962;51.312;7.378;2023-03-03T00:03:08;649.00;;;53.60;;
5871;SDS011;2962;51.312;7.378;2023-03-03T00:05:36;237.38;;;32.72;;
5871;SDS011;2962;51.312;7.378;2023-03-03T00:08:02;308.47;;;40.67;;
5871;SDS011;2962;51.312;7.378;2023-03-03T00:10:28;781.72;;;61.25;;
5871;SDS011;2962;51.312;7.378;2023-03-03T00:12:54;108.23;;;29.77;;
5871;SDS011;2962;51.312;7.378;2023-03-03T00:15:20;165.03;;;34.23;;
5871;SDS011;2962;51.312;7.378;2023-03-03T00:17:47;611.75;;;54.17;;
5871;SDS011;2962;51.312;7.378;2023-03-03T00:25:45;244.95;;;38.17;;
5871;SDS011;2962;51.312;7.378;2023-03-03T00:30:50;226.02;;;34.25;;
5871;SDS011;2962;51.312;7.378;2023-03-03T00:33:24;262.23;;;32.05;;
5871;SDS011;2962;51.312;7.378;2023-03-03T00:36:20;558.72;;;45.22;;
5871;SDS011;2962;51.312;7.378;2023-03-03T00:38:52;614.38;;;47.03;;
5871;SDS011;2962;51.312;7.378;2023-03-03T00:41:25;536.93;;;43.67;;
5871;SDS011;2962;51.312;7.378;2023-03-03T00:43:52;211.50;;;28.75;;
5871;SDS011;2962;51.312;7.378;2023-03-03T00:46:18;381.75;;;36.08;;
5871;SDS011;2962;51.312;7.378;2023-03-03T00:48:48;306.17;;;34.20;;
5871;SDS011;2962;51.312;7.378;2023-03-03T00:51:30;447.65;;;39.25;;
5871;SDS011;2962;51.312;7.378;2023-03-03T00:53:58;240.60;;;30.77;;
5871;SDS011;2962;51.312;7.378;2023-03-03T00:56:23;274.43;;;30.77;;
5871;SDS011;2962;51.312;7.378;2023-03-03T00:58:49;289.17;;;32.60;;
5871;SDS011;2962;51.312;7.378;2023-03-03T01:01:15;421.67;;;38.15;;
5871;SDS011;2962;51.312;7.378;2023-03-03T01:03:41;514.63;;;37.58;;
5871;SDS011;2962;51.312;7.378;2023-03-03T01:06:07;231.63;;;29.30;;
5871;SDS011;2962;51.312;7.378;2023-03-03T01:08:33;379.25;;;37.55;;
5871;SDS011;2962;51.312;7.378;2023-03-03T01:11:02;497.13;;;40.27;;
5871;SDS011;2962;51.312;7.378;2023-03-03T01:13:32;135.63;;;24.15;;
5871;SDS011;2962;51.312;7.378;2023-03-03T01:16:00;260.92;;;29.02;;
5871;SDS011;2962;51.312;7.378;2023-03-03T01:18:26;323.52;;;29.83;;
5871;SDS011;2962;51.312;7.378;2023-03-03T01:20:52;457.67;;;35.97;;
5871;SDS011;2962;51.312;7.378;2023-03-03T01:23:17;374.67;;;31.20;;
5871;SDS011;2962;51.312;7.378;2023-03-03T01:25:42;165.40;;;27.00;;
5871;SDS011;2962;51.312;7.378;2023-03-03T01:28:08;106.20;;;24.00;;
5871;SDS011;2962;51.312;7.378;2023-03-03T01:30:34;305.67;;;33.22;;
5871;SDS011;2962;51.312;7.378;2023-03-03T01:32:59;271.60;;;27.60;;
5871;SDS011;2962;51.312;7.378;2023-03-03T01:35:25;224.67;;;28.57;;
5871;SDS011;2962;51.312;7.378;2023-03-03T01:37:50;491.20;;;40.60;;
5871;SDS011;2962;51.312;7.378;2023-03-03T01:40:17;227.63;;;27.27;;
5871;SDS011;2962;51.312;7.378;2023-03-03T01:42:45;418.25;;;32.70;;
5871;SDS011;2962;51.312;7.378;2023-03-03T01:45:12;280.13;;;30.90;;
5871;SDS011;2962;51.312;7.378;2023-03-03T01:47:41;402.23;;;35.97;;
5871;SDS011;2962;51.312;7.378;2023-03-03T01:50:13;738.00;;;48.75;;
5871;SDS011;2962;51.312;7.378;2023-03-03T01:52:44;207.00;;;29.75;;
5871;SDS011;2962;51.312;7.378;2023-03-03T01:55:18;514.25;;;38.63;;
5871;SDS011;2962;51.312;7.378;2023-03-03T02:00:50;647.28;;;44.65;;
5871;SDS011;2962;51.312;7.378;2023-03-03T02:03:19;355.17;;;32.55;;
5871;SDS011;2962;51.312;7.378;2023-03-03T02:05:46;602.03;;;43.10;;
5871;SDS011;2962;51.312;7.378;2023-03-03T02:08:14;504.63;;;40.60;;
5871;SDS011;2962;51.312;7.378;2023-03-03T02:10:45;438.05;;;36.88;;
5871;SDS011;2962;51.312;7.378;2023-03-03T02:13:12;563.17;;;41.00;;
5871;SDS011;2962;51.312;7.378;2023-03-03T02:15:38;744.77;;;46.90;;
5871;SDS011;2962;51.312;7.378;2023-03-03T02:18:05;489.67;;;38.80;;
5871;SDS011;2962;51.312;7.378;2023-03-03T02:20:38;276.90;;;28.05;;
5871;SDS011;2962;51.312;7.378;2023-03-03T02:28:22;575.40;;;42.40;;
5871;SDS011;2962;51.312;7.378;2023-03-03T02:30:52;358.55;;;31.60;;
5871;SDS011;2962;51.312;7.378;2023-03-03T02:33:19;342.63;;;34.15;;
5871;SDS011;2962;51.312;7.378;2023-03-03T02:35:44;927.73;;;57.57;;
5871;SDS011;2962;51.312;7.378;2023-03-03T02:41:07;355.30;;;37.45;;
5871;SDS011;2962;51.312;7.378;2023-03-03T02:43:45;636.22;;;47.58;;
5871;SDS011;2962;51.312;7.378;2023-03-03T02:46:19;683.35;;;44.70;;
5871;SDS011;2962;51.312;7.378;2023-03-03T02:48:44;404.23;;;32.63;;
5871;SDS011;2962;51.312;7.378;2023-03-03T02:51:10;518.13;;;39.47;;
5871;SDS011;2962;51.312;7.378;2023-03-03T02:53:35;163.83;;;24.63;;
5871;SDS011;2962;51.312;7.378;2023-03-03T02:56:00;365.67;;;29.87;;
5871;SDS011;2962;51.312;7.378;2023-03-03T02:58:28;399.95;;;31.08;;
5871;SDS011;2962;51.312;7.378;2023-03-03T03:00:53;341.23;;;30.23;;
5871;SDS011;2962;51.312;7.378;2023-03-03T03:03:19;539.00;;;40.47;;
5871;SDS011;2962;51.312;7.378;2023-03-03T03:05:44;146.40;;;21.90;;
5871;SDS011;2962;51.312;7.378;2023-03-03T03:08:09;465.30;;;36.60;;
5871;SDS011;2962;51.312;7.378;2023-03-03T03:10:35;379.97;;;28.07;;
5871;SDS011;2962;51.312;7.378;2023-03-03T03:13:00;551.40;;;39.63;;
5871;SDS011;2962;51.312;7.378;2023-03-03T03:15:26;587.27;;;39.87;;
5871;SDS011;2962;51.312;7.378;2023-03-03T03:17:51;754.43;;;48.57;;
5871;SDS011;2962;51.312;7.378;2023-03-03T03:20:16;609.43;;;38.00;;
5871;SDS011;2962;51.312;7.378;2023-03-03T03:22:42;278.43;;;29.17;;
5871;SDS011;2962;51.312;7.378;2023-03-03T03:25:07;493.37;;;35.73;;
5871;SDS011;2962;51.312;7.378;2023-03-03T03:27:32;333.40;;;32.50;;
5871;SDS011;2962;51.312;7.378;2023-03-03T03:29:58;905.63;;;59.10;;
5871;SDS011;2962;51.312;7.378;2023-03-03T03:32:23;345.57;;;32.30;;
5871;SDS011;2962;51.312;7.378;2023-03-03T03:34:48;637.07;;;43.33;;
5871;SDS011;2962;51.312;7.378;2023-03-03T03:37:14;479.97;;;35.70;;
5871;SDS011;2962;51.312;7.378;2023-03-03T03:39:39;562.50;;;38.67;;
5871;SDS011;2962;51.312;7.378;2023-03-03T03:42:05;830.27;;;49.47;;
5871;SDS011;2962;51.312;7.378;2023-03-03T03:44:30;360.83;;;32.53;;
5871;SDS011;2962;51.312;7.378;2023-03-03T03:46:55;298.33;;;28.83;;
5871;SDS011;2962;51.312;7.378;2023-03-03T03:49:20;148.07;;;24.40;;
5871;SDS011;2962;51.312;7.378;2023-03-03T03:51:46;175.40;;;23.97;;
5871;SDS011;2962;51.312;7.378;2023-03-03T03:54:11;284.97;;;27.70;;
5871;SDS011;2962;51.312;7.378;2023-03-03T03:56:36;544.17;;;39.57;;
5871;SDS011;2962;51.312;7.378;2023-03-03T03:59:02;335.70;;;29.10;;
5871;SDS011;2962;51.312;7.378;2023-03-03T04:01:27;431.87;;;35.83;;
5871;SDS011;2962;51.312;7.378;2023-03-03T04:03:52;362.87;;;28.60;;
5871;SDS011;2962;51.312;7.378;2023-03-03T04:06:17;162.60;;;23.23;;
5871;SDS011;2962;51.312;7.378;2023-03-03T04:08:43;632.70;;;45.60;;
5871;SDS011;2962;51.312;7.378;2023-03-03T04:11:08;303.63;;;27.20;;
5871;SDS011;2962;51.312;7.378;2023-03-03T04:13:34;648.50;;;44.33;;
5871;SDS011;2962;51.312;7.378;2023-03-03T04:15:59;869.70;;;56.17;;
5871;SDS011;2962;51.312;7.378;2023-03-03T04:18:25;290.85;;;28.17;;
5871;SDS011;2962;51.312;7.378;2023-03-03T04:20:51;332.77;;;29.20;;
5871;SDS011;2962;51.312;7.378;2023-03-03T04:23:18;310.13;;;28.50;;
5871;SDS011;2962;51.312;7.378;2023-03-03T04:25:45;492.57;;;33.70;;
5871;SDS011;2962;51.312;7.378;2023-03-03T04:28:14;471.90;;;33.35;;
5871;SDS011;2962;51.312;7.378;2023-03-03T04:30:40;244.50;;;27.05;;
5871;SDS011;2962;51.312;7.378;2023-03-03T04:33:05;344.67;;;28.87;;
5871;SDS011;2962;51.312;7.378;2023-03-03T04:35:31;1069.90;;;63.93;;
5871;SDS011;2962;51.312;7.378;2023-03-03T04:37:56;956.13;;;57.03;;
5871;SDS011;2962;51.312;7.378;2023-03-03T04:40:21;698.97;;;46.27;;
5871;SDS011;2962;51.312;7.378;2023-03-03T04:42:46;252.17;;;26.63;;
5871;SDS011;2962;51.312;7.378;2023-03-03T04:45:12;1083.17;;;68.73;;
5871;SDS011;2962;51.312;7.378;2023-03-03T04:47:37;403.43;;;31.60;;
5871;SDS011;2962;51.312;7.378;2023-03-03T04:50:03;599.63;;;39.40;;
5871;SDS011;2962;51.312;7.378;2023-03-03T04:52:28;587.63;;;37.53;;
5871;SDS011;2962;51.312;7.378;2023-03-03T04:54:54;781.83;;;49.50;;
5871;SDS011;2962;51.312;7.378;2023-03-03T04:57:19;846.30;;;49.63;;
5871;SDS011;2962;51.312;7.378;2023-03-03T04:59:44;650.30;;;42.20;;
5871;SDS011;2962;51.312;7.378;2023-03-03T05:02:10;280.47;;;25.73;;
5871;SDS011;2962;51.312;7.378;2023-03-03T05:04:36;265.92;;;26.65;;
5871;SDS011;2962;51.312;7.378;2023-03-03T05:07:02;282.30;;;22.80;;
5871;SDS011;2962;51.312;7.378;2023-03-03T05:09:27;544.03;;;33.87;;
5871;SDS011;2962;51.312;7.378;2023-03-03T05:11:53;528.00;;;38.70;;
5871;SDS011;2962;51.312;7.378;2023-03-03T05:14:18;524.27;;;35.30;;
5871;SDS011;2962;51.312;7.378;2023-03-03T05:16:43;630.30;;;40.73;;
5871;SDS011;2962;51.312;7.378;2023-03-03T05:19:09;439.97;;;29.77;;
5871;SDS011;2962;51.312;7.378;2023-03-03T05:21:34;299.37;;;25.50;;
5871;SDS011;2962;51.312;7.378;2023-03-03T05:24:00;195.67;;;24.17;;
5871;SDS011;2962;51.312;7.378;2023-03-03T05:26:25;286.83;;;26.90;;
5871;SDS011;2962;51.312;7.378;2023-03-03T05:28:50;364.93;;;27.93;;
5871;SDS011;2962;51.312;7.378;2023-03-03T05:31:15;375.97;;;31.70;;
5871;SDS011;2962;51.312;7.378;2023-03-03T05:33:41;293.17;;;27.80;;
5871;SDS011;2962;51.312;7.378;2023-03-03T05:36:09;551.70;;;37.08;;
5871;SDS011;2962;51.312;7.378;2023-03-03T05:38:34;228.57;;;23.80;;
5871;SDS011;2962;51.312;7.378;2023-03-03T05:40:59;290.63;;;25.33;;
5871;SDS011;2962;51.312;7.378;2023-03-03T05:43:25;722.00;;;38.60;;
5871;SDS011;2962;51.312;7.378;2023-03-03T05:45:54;347.43;;;25.33;;
5871;SDS011;2962;51.312;7.378;2023-03-03T05:48:20;582.95;;;38.85;;
5871;SDS011;2962;51.312;7.378;2023-03-03T05:50:45;599.83;;;35.70;;
5871;SDS011;2962;51.312;7.378;2023-03-03T05:53:11;410.37;;;27.93;;
5871;SDS011;2962;51.312;7.378;2023-03-03T05:55:36;187.13;;;20.37;;
5871;SDS011;2962;51.312;7.378;2023-03-03T05:58:01;235.80;;;22.00;;
5871;SDS011;2962;51.312;7.378;2023-03-03T06:00:26;214.23;;;22.40;;
5871;SDS011;2962;51.312;7.378;2023-03-03T06:02:52;421.03;;;30.03;;
5871;SDS011;2962;51.312;7.378;2023-03-03T06:05:17;290.53;;;25.30;;
5871;SDS011;2962;51.312;7.378;2023-03-03T06:07:43;717.53;;;43.63;;
5871;SDS011;2962;51.312;7.378;2023-03-03T06:10:09;304.23;;;27.40;;
5871;SDS011;2962;51.312;7.378;2023-03-03T06:12:34;409.87;;;31.83;;
5871;SDS011;2962;51.312;7.378;2023-03-03T06:15:00;223.47;;;22.40;;
5871;SDS011;2962;51.312;7.378;2023-03-03T06:17:26;255.93;;;23.97;;
5871;SDS011;2962;51.312;7.378;2023-03-03T06:19:51;117.30;;;17.83;;
5871;SDS011;2962;51.312;7.378;2023-03-03T06:22:16;402.53;;;27.80;;
5871;SDS011;2962;51.312;7.378;2023-03-03T06:24:42;488.30;;;32.90;;
5871;SDS011;2962;51.312;7.378;2023-03-03T06:27:07;204.53;;;19.43;;
5871;SDS011;2962;51.312;7.378;2023-03-03T06:29:33;326.77;;;26.73;;
5871;SDS011;2962;51.312;7.378;2023-03-03T06:31:58;225.37;;;21.00;;
5871;SDS011;2962;51.312;7.378;2023-03-03T06:34:23;154.70;;;19.40;;
5871;SDS011;2962;51.312;7.378;2023-03-03T06:36:49;128.37;;;19.80;;
5871;SDS011;2962;51.312;7.378;2023-03-03T06:39:14;308.17;;;23.60;;
5871;SDS011;2962;51.312;7.378;2023-03-03T06:41:39;244.27;;;22.53;;
5871;SDS011;2962;51.312;7.378;2023-03-03T06:44:04;177.97;;;23.50;;
5871;SDS011;2962;51.312;7.378;2023-03-03T06:46:30;111.73;;;18.67;;
5871;SDS011;2962;51.312;7.378;2023-03-03T06:48:55;129.03;;;20.40;;
5871;SDS011;2962;51.312;7.378;2023-03-03T06:51:24;515.53;;;35.80;;
5871;SDS011;2962;51.312;7.378;2023-03-03T06:53:55;127.47;;;20.92;;
5871;SDS011;2962;51.312;7.378;2023-03-03T06:56:25;220.52;;;22.45;;
5871;SDS011;2962;51.312;7.378;2023-03-03T06:58:55;463.08;;;31.50;;
5871;SDS011;2962;51.312;7.378;2023-03-03T07:01:22;215.68;;;22.60;;
5871;SDS011;2962;51.312;7.378;2023-03-03T07:03:47;67.67;;;17.30;;
5871;SDS011;2962;51.312;7.378;2023-03-03T07:08:47;295.63;;;26.90;;
5871;SDS011;2962;51.312;7.378;2023-03-03T07:11:14;165.93;;;21.60;;
5871;SDS011;2962;51.312;7.378;2023-03-03T07:13:45;278.80;;;27.27;;
5871;SDS011;2962;51.312;7.378;2023-03-03T07:16:12;103.80;;;18.90;;
5871;SDS011;2962;51.312;7.378;2023-03-03T07:18:52;520.30;;;30.15;;
5871;SDS011;2962;51.312;7.378;2023-03-03T07:21:21;374.02;;;27.65;;
5871;SDS011;2962;51.312;7.378;2023-03-03T07:23:50;126.13;;;19.67;;
5871;SDS011;2962;51.312;7.378;2023-03-03T07:26:21;101.30;;;18.48;;
5871;SDS011;2962;51.312;7.378;2023-03-03T07:28:55;152.35;;;19.63;;
5871;SDS011;2962;51.312;7.378;2023-03-03T07:31:26;98.72;;;17.45;;
5871;SDS011;2962;51.312;7.378;2023-03-03T07:33:59;163.63;;;20.95;;
5871;SDS011;2962;51.312;7.378;2023-03-03T07:36:30;244.10;;;25.83;;
5871;SDS011;2962;51.312;7.378;2023-03-03T07:39:01;54.35;;;18.40;;
5871;SDS011;2962;51.312;7.378;2023-03-03T07:41:41;39.20;;;18.02;;
5871;SDS011;2962;51.312;7.378;2023-03-03T07:44:20;48.03;;;16.87;;
5871;SDS011;2962;51.312;7.378;2023-03-03T07:46:50;53.00;;;16.58;;
5871;SDS011;2962;51.312;7.378;2023-03-03T07:51:55;72.60;;;15.38;;
5871;SDS011;2962;51.312;7.378;2023-03-03T07:54:38;54.50;;;15.00;;
5871;SDS011;2962;51.312;7.378;2023-03-03T08:02:40;79.93;;;18.05;;
5871;SDS011;2962;51.312;7.378;2023-03-03T08:07:57;67.60;;;17.75;;
5871;SDS011;2962;51.312;7.378;2023-03-03T08:15:55;96.72;;;18.25;;
5871;SDS011;2962;51.312;7.378;2023-03-03T08:21:07;42.55;;;17.52;;
5871;SDS011;2962;51.312;7.378;2023-03-03T08:23:37;58.85;;;18.00;;
5871;SDS011;2962;51.312;7.378;2023-03-03T08:26:03;72.40;;;18.60;;
5871;SDS011;2962;51.312;7.378;2023-03-03T08:28:28;53.03;;;19.13;;
5871;SDS011;2962;51.312;7.378;2023-03-03T08:30:53;175.23;;;22.87;;
5871;SDS011;2962;51.312;7.378;2023-03-03T08:33:19;59.00;;;18.57;;
5871;SDS011;2962;51.312;7.378;2023-03-03T08:35:44;227.87;;;21.90;;
5871;SDS011;2962;51.312;7.378;2023-03-03T08:38:11;235.47;;;23.23;;
5871;SDS011;2962;51.312;7.378;2023-03-03T08:40:37;44.20;;;18.83;;
5871;SDS011;2962;51.312;7.378;2023-03-03T08:43:03;46.93;;;16.90;;
5871;SDS011;2962;51.312;7.378;2023-03-03T08:45:29;106.37;;;21.17;;
5871;SDS011;2962;51.312;7.378;2023-03-03T08:47:54;59.23;;;17.80;;
5871;SDS011;2962;51.312;7.378;2023-03-03T08:50:20;58.47;;;18.57;;
5871;SDS011;2962;51.312;7.378;2023-03-03T08:52:46;42.80;;;17.73;;
5871;SDS011;2962;51.312;7.378;2023-03-03T08:55:11;50.20;;;18.10;;
5871;SDS011;2962;51.312;7.378;2023-03-03T08:57:37;43.00;;;18.60;;
5871;SDS011;2962;51.312;7.378;2023-03-03T09:00:03;98.38;;;20.17;;
5871;SDS011;2962;51.312;7.378;2023-03-03T09:02:30;49.70;;;18.33;;
5871;SDS011;2962;51.312;7.378;2023-03-03T09:04:56;78.43;;;21.30;;
5871;SDS011;2962;51.312;7.378;2023-03-03T09:07:21;49.77;;;18.63;;
5871;SDS011;2962;51.312;7.378;2023-03-03T09:09:46;47.90;;;20.07;;
5871;SDS011;2962;51.312;7.378;2023-03-03T09:12:14;38.17;;;17.63;;
5871;SDS011;2962;51.312;7.378;2023-03-03T09:15:22;47.33;;;18.85;;
5871;SDS011;2962;51.312;7.378;2023-03-03T09:17:50;45.38;;;18.80;;
5871;SDS011;2962;51.312;7.378;2023-03-03T09:22:59;46.47;;;20.02;;
5871;SDS011;2962;51.312;7.378;2023-03-03T09:25:48;49.80;;;19.50;;
5871;SDS011;2962;51.312;7.378;2023-03-03T09:28:20;46.55;;;19.48;;
5871;SDS011;2962;51.312;7.378;2023-03-03T09:30:48;41.92;;;18.90;;
5871;SDS011;2962;51.312;7.378;2023-03-03T09:33:22;52.83;;;22.30;;
5871;SDS011;2962;51.312;7.378;2023-03-03T09:36:25;51.30;;;21.30;;
5871;SDS011;2962;51.312;7.378;2023-03-03T09:38:53;55.00;;;21.00;;
5871;SDS011;2962;51.312;7.378;2023-03-03T09:41:23;54.65;;;20.85;;
5871;SDS011;2962;51.312;7.378;2023-03-03T09:44:27;51.40;;;20.80;;
5871;SDS011;2962;51.312;7.378;2023-03-03T10:02:54;48.97;;;21.42;;
5871;SDS011;2962;51.312;7.378;2023-03-03T10:05:58;45.03;;;18.88;;
5871;SDS011;2962;51.312;7.378;2023-03-03T10:08:44;45.70;;;18.15;;
5871;SDS011;2962;51.312;7.378;2023-03-03T10:22:23;44.90;;;19.60;;
5871;SDS011;2962;51.312;7.378;2023-03-03T10:33:01;47.38;;;20.70;;
5871;SDS011;2962;51.312;7.378;2023-03-03T10:38:25;42.92;;;19.52;;
5871;SDS011;2962;51.312;7.378;2023-03-03T10:43:49;48.08;;;19.60;;
5871;SDS011;2962;51.312;7.378;2023-03-03T10:46:38;42.58;;;20.30;;
5871;SDS011;2962;51.312;7.378;2023-03-03T10:49:21;43.60;;;19.95;;
5871;SDS011;2962;51.312;7.378;2023-03-03T10:52:18;42.20;;;18.30;;
5871;SDS011;2962;51.312;7.378;2023-03-03T10:54:56;49.70;;;20.17;;
5871;SDS011;2962;51.312;7.378;2023-03-03T11:00:19;41.40;;;17.65;;
5871;SDS011;2962;51.312;7.378;2023-03-03T11:06:00;47.92;;;19.70;;
5871;SDS011;2962;51.312;7.378;2023-03-03T11:08:32;45.10;;;20.73;;
5871;SDS011;2962;51.312;7.378;2023-03-03T11:11:13;39.70;;;18.98;;
5871;SDS011;2962;51.312;7.378;2023-03-03T11:13:49;46.38;;;18.95;;
5871;SDS011;2962;51.312;7.378;2023-03-03T11:16:27;41.33;;;19.13;;
5871;SDS011;2962;51.312;7.378;2023-03-03T11:21:57;40.33;;;17.77;;
5871;SDS011;2962;51.312;7.378;2023-03-03T11:24:38;40.72;;;18.45;;
5871;SDS011;2962;51.312;7.378;2023-03-03T11:30:27;33.65;;;16.83;;
5871;SDS011;2962;51.312;7.378;2023-03-03T11:33:01;38.45;;;16.27;;
5871;SDS011;2962;51.312;7.378;2023-03-03T11:37:57;34.63;;;16.40;;
5871;SDS011;2962;51.312;7.378;2023-03-03T11:43:31;35.30;;;16.23;;
5871;SDS011;2962;51.312;7.378;2023-03-03T11:46:05;35.55;;;17.33;;
5871;SDS011;2962;51.312;7.378;2023-03-03T11:48:38;37.38;;;16.95;;
5871;SDS011;2962;51.312;7.378;2023-03-03T11:51:13;35.15;;;16.02;;
5871;SDS011;2962;51.312;7.378;2023-03-03T11:53:54;44.55;;;18.40;;
5871;SDS011;2962;51.312;7.378;2023-03-03T11:56:26;38.47;;;17.25;;
5871;SDS011;2962;51.312;7.378;2023-03-03T11:59:03;38.17;;;18.17;;
5871;SDS011;2962;51.312;7.378;2023-03-03T12:01:52;42.72;;;17.67;;
5871;SDS011;2962;51.312;7.378;2023-03-03T12:04:37;36.90;;;17.00;;
5871;SDS011;2962;51.312;7.378;2023-03-03T12:09:58;37.83;;;17.35;;
5871;SDS011;2962;51.312;7.378;2023-03-03T12:13:00;29.75;;;15.70;;
5871;SDS011;2962;51.312;7.378;2023-03-03T12:15:37;33.20;;;15.48;;
5871;SDS011;2962;51.312;7.378;2023-03-03T12:18:26;33.50;;;16.02;;
5871;SDS011;2962;51.312;7.378;2023-03-03T12:21:04;31.85;;;15.57;;
5871;SDS011;2962;51.312;7.378;2023-03-03T12:23:47;32.03;;;16.00;;
5871;SDS011;2962;51.312;7.378;2023-03-03T12:26:24;34.55;;;15.88;;
5871;SDS011;2962;51.312;7.378;2023-03-03T12:29:04;29.10;;;14.75;;
5871;SDS011;2962;51.312;7.378;2023-03-03T12:39:40;29.45;;;14.27;;
5871;SDS011;2962;51.312;7.378;2023-03-03T12:47:48;39.15;;;16.13;;
5871;SDS011;2962;51.312;7.378;2023-03-03T12:50:21;33.92;;;15.95;;
5871;SDS011;2962;51.312;7.378;2023-03-03T12:56:00;31.35;;;14.43;;
5871;SDS011;2962;51.312;7.378;2023-03-03T12:58:33;35.15;;;14.68;;
5871;SDS011;2962;51.312;7.378;2023-03-03T13:06:43;25.42;;;12.55;;
5871;SDS011;2962;51.312;7.378;2023-03-03T13:12:17;27.95;;;12.63;;
5871;SDS011;2962;51.312;7.378;2023-03-03T13:14:56;32.67;;;13.20;;
5871;SDS011;2962;51.312;7.378;2023-03-03T13:17:44;22.95;;;12.80;;
5871;SDS011;2962;51.312;7.378;2023-03-03T13:22:58;27.77;;;13.73;;
5871;SDS011;2962;51.312;7.378;2023-03-03T13:25:39;29.03;;;13.60;;
5871;SDS011;2962;51.312;7.378;2023-03-03T13:31:04;26.73;;;13.30;;
5871;SDS011;2962;51.312;7.378;2023-03-03T13:33:39;31.83;;;14.50;;
5871;SDS011;2962;51.312;7.378;2023-03-03T13:36:13;32.20;;;15.60;;
5871;SDS011;2962;51.312;7.378;2023-03-03T13:38:41;34.03;;;15.40;;
5871;SDS011;2962;51.312;7.378;2023-03-03T13:41:16;27.03;;;14.90;;
5871;SDS011;2962;51.312;7.378;2023-03-03T13:43:51;33.60;;;14.70;;
5871;SDS011;2962;51.312;7.378;2023-03-03T13:46:26;33.87;;;15.77;;
5871;SDS011;2962;51.312;7.378;2023-03-03T13:51:55;33.80;;;16.57;;
5871;SDS011;2962;51.312;7.378;2023-03-03T14:03:05;40.75;;;15.88;;
5871;SDS011;2962;51.312;7.378;2023-03-03T14:06:01;36.05;;;15.70;;
5871;SDS011;2962;51.312;7.378;2023-03-03T14:08:38;34.08;;;15.90;;
5871;SDS011;2962;51.312;7.378;2023-03-03T14:11:10;42.58;;;16.95;;
5871;SDS011;2962;51.312;7.378;2023-03-03T14:18:47;42.17;;;18.00;;
5871;SDS011;2962;51.312;7.378;2023-03-03T14:21:25;36.03;;;15.27;;
5871;SDS011;2962;51.312;7.378;2023-03-03T14:23:58;30.80;;;14.97;;
5871;SDS011;2962;51.312;7.378;2023-03-03T14:26:27;31.73;;;16.43;;
5871;SDS011;2962;51.312;7.378;2023-03-03T14:29:02;33.90;;;15.10;;
5871;SDS011;2962;51.312;7.378;2023-03-03T14:31:43;35.50;;;15.97;;
5871;SDS011;2962;51.312;7.378;2023-03-03T14:34:13;34.30;;;15.73;;
5871;SDS011;2962;51.312;7.378;2023-03-03T14:36:51;39.83;;;15.50;;
5871;SDS011;2962;51.312;7.378;2023-03-03T14:39:34;29.60;;;13.53;;
5871;SDS011;2962;51.312;7.378;2023-03-03T14:42:09;29.73;;;14.63;;
5871;SDS011;2962;51.312;7.378;2023-03-03T14:49:35;26.77;;;13.63;;
5871;SDS011;2962;51.312;7.378;2023-03-03T14:54:47;31.50;;;15.00;;
5871;SDS011;2962;51.312;7.378;2023-03-03T14:57:15;26.37;;;13.73;;
5871;SDS011;2962;51.312;7.378;2023-03-03T14:59:55;31.03;;;14.27;;
5871;SDS011;2962;51.312;7.378;2023-03-03T15:02:34;35.20;;;16.03;;
5871;SDS011;2962;51.312;7.378;2023-03-03T15:05:14;28.73;;;13.30;;
5871;SDS011;2962;51.312;7.378;2023-03-03T15:07:56;30.17;;;16.30;;
5871;SDS011;2962;51.312;7.378;2023-03-03T15:15:56;26.57;;;14.87;;
5871;SDS011;2962;51.312;7.378;2023-03-03T15:18:25;29.67;;;15.37;;
5871;SDS011;2962;51.312;7.378;2023-03-03T15:20:54;28.60;;;16.20;;
5871;SDS011;2962;51.312;7.378;2023-03-03T15:29:23;28.77;;;16.30;;
5871;SDS011;2962;51.312;7.378;2023-03-03T15:34:46;30.00;;;15.53;;
5871;SDS011;2962;51.312;7.378;2023-03-03T15:40:25;29.53;;;15.67;;
5871;SDS011;2962;51.312;7.378;2023-03-03T15:56:51;31.83;;;15.43;;
5871;SDS011;2962;51.312;7.378;2023-03-03T16:02:32;27.47;;;14.33;;
5871;SDS011;2962;51.312;7.378;2023-03-03T16:05:16;31.20;;;15.60;;
5871;SDS011;2962;51.312;7.378;2023-03-03T16:18:42;29.93;;;15.43;;
5871;SDS011;2962;51.312;7.378;2023-03-03T16:24:05;29.20;;;14.87;;
5871;SDS011;2962;51.312;7.378;2023-03-03T16:29:28;30.90;;;16.23;;
5871;SDS011;2962;51.312;7.378;2023-03-03T16:32:07;29.80;;;15.60;;
5871;SDS011;2962;51.312;7.378;2023-03-03T16:34:41;36.67;;;15.80;;
5871;SDS011;2962;51.312;7.378;2023-03-03T16:42:43;32.83;;;16.27;;
5871;SDS011;2962;51.312;7.378;2023-03-03T16:45:28;35.00;;;14.77;;
5871;SDS011;2962;51.312;7.378;2023-03-03T16:48:02;38.50;;;16.03;;
5871;SDS011;2962;51.312;7.378;2023-03-03T16:58:39;44.50;;;18.30;;
5871;SDS011;2962;51.312;7.378;2023-03-03T17:01:19;49.15;;;18.85;;
5871;SDS011;2962;51.312;7.378;2023-03-03T17:11:50;45.83;;;20.33;;
5871;SDS011;2962;51.312;7.378;2023-03-03T17:17:31;42.78;;;19.63;;
5871;SDS011;2962;51.312;7.378;2023-03-03T17:25:19;48.20;;;23.00;;
5871;SDS011;2962;51.312;7.378;2023-03-03T17:27:54;54.58;;;21.58;;
5871;SDS011;2962;51.312;7.378;2023-03-03T17:30:38;43.10;;;19.15;;
5871;SDS011;2962;51.312;7.378;2023-03-03T17:33:42;54.35;;;23.77;;
5871;SDS011;2962;51.312;7.378;2023-03-03T17:42:02;58.03;;;23.42;;
5871;SDS011;2962;51.312;7.378;2023-03-03T17:44:50;54.10;;;21.48;;
5871;SDS011;2962;51.312;7.378;2023-03-03T17:47:37;67.00;;;24.65;;
5871;SDS011;2962;51.312;7.378;2023-03-03T17:50:13;59.42;;;24.73;;
5871;SDS011;2962;51.312;7.378;2023-03-03T17:52:58;58.63;;;22.83;;
5871;SDS011;2962;51.312;7.378;2023-03-03T18:06:36;59.40;;;22.50;;
5871;SDS011;2962;51.312;7.378;2023-03-03T18:12:11;60.50;;;21.77;;
5871;SDS011;2962;51.312;7.378;2023-03-03T18:20:46;56.60;;;21.42;;
5871;SDS011;2962;51.312;7.378;2023-03-03T18:29:03;51.13;;;20.63;;
5871;SDS011;2962;51.312;7.378;2023-03-03T18:31:29;49.97;;;19.38;;
5871;SDS011;2962;51.312;7.378;2023-03-03T18:34:08;54.03;;;20.58;;
5871;SDS011;2962;51.312;7.378;2023-03-03T18:36:57;58.03;;;21.00;;
5871;SDS011;2962;51.312;7.378;2023-03-03T18:39:37;55.40;;;21.77;;
5871;SDS011;2962;51.312;7.378;2023-03-03T18:42:09;59.70;;;22.98;;
5871;SDS011;2962;51.312;7.378;2023-03-03T18:44:36;56.35;;;22.50;;
5871;SDS011;2962;51.312;7.378;2023-03-03T18:47:02;63.00;;;23.73;;
5871;SDS011;2962;51.312;7.378;2023-03-03T18:55:43;67.75;;;25.27;;
5871;SDS011;2962;51.312;7.378;2023-03-03T19:03:26;71.78;;;24.17;;
5871;SDS011;2962;51.312;7.378;2023-03-03T19:06:09;59.03;;;25.55;;
5871;SDS011;2962;51.312;7.378;2023-03-03T19:08:42;69.67;;;25.33;;
5871;SDS011;2962;51.312;7.378;2023-03-03T19:16:50;72.72;;;26.75;;
5871;SDS011;2962;51.312;7.378;2023-03-03T19:22:27;63.83;;;23.30;;
5871;SDS011;2962;51.312;7.378;2023-03-03T19:25:28;58.08;;;22.08;;
5871;SDS011;2962;51.312;7.378;2023-03-03T19:27:59;62.85;;;23.42;;
5871;SDS011;2962;51.312;7.378;2023-03-03T19:36:09;46.15;;;18.02;;
5871;SDS011;2962;51.312;7.378;2023-03-03T19:41:34;60.22;;;19.48;;
5871;SDS011;2962;51.312;7.378;2023-03-03T19:46:41;50.30;;;18.67;;
5871;SDS011;2962;51.312;7.378;2023-03-03T19:52:24;46.08;;;18.65;;
5871;SDS011;2962;51.312;7.378;2023-03-03T19:55:05;51.90;;;19.13;;
5871;SDS011;2962;51.312;7.378;2023-03-03T19:57:53;48.35;;;18.98;;
5871;SDS011;2962;51.312;7.378;2023-03-03T20:00:44;47.50;;;20.70;;
5871;SDS011;2962;51.312;7.378;2023-03-03T20:03:22;48.00;;;19.60;;
5871;SDS011;2962;51.312;7.378;2023-03-03T20:06:13;39.72;;;18.15;;
5871;SDS011;2962;51.312;7.378;2023-03-03T20:09:12;39.38;;;16.63;;
5871;SDS011;2962;51.312;7.378;2023-03-03T20:11:51;38.35;;;18.38;;